sensor_id;sensor_type;location;lat;lon;timestamp;temperature;humidity
16066;DHT22;8137;48.952;8.970;2023-10-31T00:00:06;11.80;99.90
16066;DHT22;8137;48.952;8.970;2023-10-31T00:02:35;11.80;99.90
16066;DHT22;8137;48.952;8.970;2023-10-31T00:05:00;11.80;99.90
16066;DHT22;8137;48.952;8.970;2023-10-31T00:07:26;11.80;99.90
16066;DHT22;8137;48.952;8.970;2023-10-31T00:09:51;11.80;99.90
16066;DHT22;8137;48.952;8.970;2023-10-31T00:12:17;11.80;99.90
16066;DHT22;8137;48.952;8.970;2023-10-31T00:14:42;11.70;99.90
16066;DHT22;8137;48.952;8.970;2023-10-31T00:17:08;11.70;99.90
16066;DHT22;8137;48.952;8.970;2023-10-31T00:19:34;11.70;99.90
16066;DHT22;8137;48.952;8.970;2023-10-31T00:21:59;11.70;99.90
16066;DHT22;8137;48.952;8.970;2023-10-31T00:24:25;11.60;99.90
16066;DHT22;8137;48.952;8.970;2023-10-31T00:26:51;11.60;99.90
16066;DHT22;8137;48.952;8.970;2023-10-31T00:29:17;11.60;99.90
16066;DHT22;8137;48.952;8.970;2023-10-31T00:31:42;11.50;99.90
16066;DHT22;8137;48.952;8.970;2023-10-31T00:34:08;11.40;99.90
16066;DHT22;8137;48.952;8.970;2023-10-31T00:36:34;11.40;99.90
16066;DHT22;8137;48.952;8.970;2023-10-31T00:39:00;11.30;99.90
16066;DHT22;8137;48.952;8.970;2023-10-31T00:41:25;11.20;99.90
16066;DHT22;8137;48.952;8.970;2023-10-31T00:43:51;11.20;99.90
16066;DHT22;8137;48.952;8.970;2023-10-31T00:46:17;11.20;99.90
16066;DHT22;8137;48.952;8.970;2023-10-31T00:48:42;11.10;99.90
16066;DHT22;8137;48.952;8.970;2023-10-31T00:51:08;11.10;99.90
16066;DHT22;8137;48.952;8.970;2023-10-31T00:53:33;11.10;99.90
16066;DHT22;8137;48.952;8.970;2023-10-31T00:55:59;11.00;99.90
16066;DHT22;8137;48.952;8.970;2023-10-31T00:58:25;11.00;99.90
16066;DHT22;8137;48.952;8.970;2023-10-31T01:00:50;10.90;99.90
16066;DHT22;8137;48.952;8.970;2023-10-31T01:03:16;10.90;99.90
16066;DHT22;8137;48.952;8.970;2023-10-31T01:05:41;10.90;99.90
16066;DHT22;8137;48.952;8.970;2023-10-31T01:08:07;10.90;99.90
16066;DHT22;8137;48.952;8.970;2023-10-31T01:10:33;10.90;99.90
16066;DHT22;8137;48.952;8.970;2023-10-31T01:12:58;10.80;99.90
16066;DHT22;8137;48.952;8.970;2023-10-31T01:15:24;10.70;99.90
16066;DHT22;8137;48.952;8.970;2023-10-31T01:17:49;10.70;99.90
16066;DHT22;8137;48.952;8.970;2023-10-31T01:20:15;10.60;99.90
16066;DHT22;8137;48.952;8.970;2023-10-31T01:22:41;10.50;99.90
16066;DHT22;8137;48.952;8.970;2023-10-31T01:25:06;10.50;99.90
16066;DHT22;8137;48.952;8.970;2023-10-31T01:27:32;10.40;99.90
16066;DHT22;8137;48.952;8.970;2023-10-31T01:29:58;10.50;99.90
16066;DHT22;8137;48.952;8.970;2023-10-31T01:32:24;10.40;99.90
16066;DHT22;8137;48.952;8.970;2023-10-31T01:34:49;10.30;99.90
16066;DHT22;8137;48.952;8.970;2023-10-31T01:37:15;10.20;99.90
16066;DHT22;8137;48.952;8.970;2023-10-31T01:39:41;10.20;99.90
16066;DHT22;8137;48.952;8.970;2023-10-31T01:42:06;10.20;99.90
16066;DHT22;8137;48.952;8.970;2023-10-31T01:44:32;10.10;99.90
16066;DHT22;8137;48.952;8.970;2023-10-31T01:46:58;10.20;99.90
16066;DHT22;8137;48.952;8.970;2023-10-31T01:49:24;10.20;99.90
16066;DHT22;8137;48.952;8.970;2023-10-31T01:51:50;10.30;99.90
16066;DHT22;8137;48.952;8.970;2023-10-31T01:54:16;10.50;99.90
16066;DHT22;8137;48.952;8.970;2023-10-31T01:56:42;10.50;99.90
16066;DHT22;8137;48.952;8.970;2023-10-31T01:59:08;10.50;99.90
16066;DHT22;8137;48.952;8.970;2023-10-31T02:01:38;10.60;99.90
16066;DHT22;8137;48.952;8.970;2023-10-31T02:04:07;10.60;99.90
16066;DHT22;8137;48.952;8.970;2023-10-31T02:06:33;10.60;99.90
16066;DHT22;8137;48.952;8.970;2023-10-31T02:08:58;10.60;99.90
16066;DHT22;8137;48.952;8.970;2023-10-31T02:11:24;10.60;99.90
16066;DHT22;8137;48.952;8.970;2023-10-31T02:13:50;10.50;99.90
16066;DHT22;8137;48.952;8.970;2023-10-31T02:16:15;10.40;99.90
16066;DHT22;8137;48.952;8.970;2023-10-31T02:18:41;10.40;99.90
16066;DHT22;8137;48.952;8.970;2023-10-31T02:21:07;10.30;99.90
16066;DHT22;8137;48.952;8.970;2023-10-31T02:23:33;10.30;99.90
16066;DHT22;8137;48.952;8.970;2023-10-31T02:25:59;10.20;99.90
16066;DHT22;8137;48.952;8.970;2023-10-31T02:28:24;10.20;99.90
16066;DHT22;8137;48.952;8.970;2023-10-31T02:30:53;10.20;99.90
16066;DHT22;8137;48.952;8.970;2023-10-31T02:33:20;10.10;99.90
16066;DHT22;8137;48.952;8.970;2023-10-31T02:35:46;10.00;99.90
16066;DHT22;8137;48.952;8.970;2023-10-31T02:38:11;10.00;99.90
16066;DHT22;8137;48.952;8.970;2023-10-31T02:40:37;10.00;99.90
16066;DHT22;8137;48.952;8.970;2023-10-31T02:43:03;9.90;99.90
16066;DHT22;8137;48.952;8.970;2023-10-31T02:45:28;9.90;99.90
16066;DHT22;8137;48.952;8.970;2023-10-31T02:47:55;10.00;99.90
16066;DHT22;8137;48.952;8.970;2023-10-31T02:50:21;9.90;99.90
16066;DHT22;8137;48.952;8.970;2023-10-31T02:52:46;9.90;99.90
16066;DHT22;8137;48.952;8.970;2023-10-31T02:55:12;9.90;99.90
16066;DHT22;8137;48.952;8.970;2023-10-31T02:57:38;9.90;99.90
16066;DHT22;8137;48.952;8.970;2023-10-31T03:00:04;9.90;99.90
16066;DHT22;8137;48.952;8.970;2023-10-31T03:02:30;9.80;99.90
16066;DHT22;8137;48.952;8.970;2023-10-31T03:04:56;9.90;99.90
16066;DHT22;8137;48.952;8.970;2023-10-31T03:07:21;9.90;99.90
16066;DHT22;8137;48.952;8.970;2023-10-31T03:09:47;9.90;99.90
16066;DHT22;8137;48.952;8.970;2023-10-31T03:12:12;9.90;99.90
16066;DHT22;8137;48.952;8.970;2023-10-31T03:14:38;10.00;99.90
16066;DHT22;8137;48.952;8.970;2023-10-31T03:17:03;10.10;99.90
16066;DHT22;8137;48.952;8.970;2023-10-31T03:19:29;10.10;99.90
16066;DHT22;8137;48.952;8.970;2023-10-31T03:21:55;10.10;99.90
16066;DHT22;8137;48.952;8.970;2023-10-31T03:24:20;10.10;99.90
16066;DHT22;8137;48.952;8.970;2023-10-31T03:26:46;10.10;99.90
16066;DHT22;8137;48.952;8.970;2023-10-31T03:29:11;10.10;99.90
16066;DHT22;8137;48.952;8.970;2023-10-31T03:31:37;10.20;99.90
16066;DHT22;8137;48.952;8.970;2023-10-31T03:34:02;10.20;99.90
16066;DHT22;8137;48.952;8.970;2023-10-31T03:36:28;10.30;99.90
16066;DHT22;8137;48.952;8.970;2023-10-31T03:38:54;10.30;99.90
16066;DHT22;8137;48.952;8.970;2023-10-31T03:41:19;10.40;99.90
16066;DHT22;8137;48.952;8.970;2023-10-31T03:43:45;10.40;99.90
16066;DHT22;8137;48.952;8.970;2023-10-31T03:46:11;10.40;99.90
16066;DHT22;8137;48.952;8.970;2023-10-31T03:48:37;10.40;99.90
16066;DHT22;8137;48.952;8.970;2023-10-31T03:51:06;10.40;99.90
16066;DHT22;8137;48.952;8.970;2023-10-31T03:53:31;10.50;99.90
16066;DHT22;8137;48.952;8.970;2023-10-31T03:55:59;10.50;99.90
16066;DHT22;8137;48.952;8.970;2023-10-31T03:58:25;10.50;99.90
16066;DHT22;8137;48.952;8.970;2023-10-31T04:00:51;10.50;99.90
16066;DHT22;8137;48.952;8.970;2023-10-31T04:03:16;10.50;99.90
16066;DHT22;8137;48.952;8.970;2023-10-31T04:05:42;10.50;99.90
16066;DHT22;8137;48.952;8.970;2023-10-31T04:08:07;10.50;99.90
16066;DHT22;8137;48.952;8.970;2023-10-31T04:10:33;10.50;99.90
16066;DHT22;8137;48.952;8.970;2023-10-31T04:12:59;10.50;99.90
16066;DHT22;8137;48.952;8.970;2023-10-31T04:15:25;10.60;99.90
16066;DHT22;8137;48.952;8.970;2023-10-31T04:17:50;10.60;99.90
16066;DHT22;8137;48.952;8.970;2023-10-31T04:20:16;10.60;99.90
16066;DHT22;8137;48.952;8.970;2023-10-31T04:22:42;10.70;99.90
16066;DHT22;8137;48.952;8.970;2023-10-31T04:25:08;10.70;99.90
16066;DHT22;8137;48.952;8.970;2023-10-31T04:27:33;10.70;99.90
16066;DHT22;8137;48.952;8.970;2023-10-31T04:29:59;10.70;99.90
16066;DHT22;8137;48.952;8.970;2023-10-31T04:32:24;10.70;99.90
16066;DHT22;8137;48.952;8.970;2023-10-31T04:34:50;10.60;99.90
16066;DHT22;8137;48.952;8.970;2023-10-31T04:37:16;10.60;99.90
16066;DHT22;8137;48.952;8.970;2023-10-31T04:39:41;10.50;99.90
16066;DHT22;8137;48.952;8.970;2023-10-31T04:42:07;10.60;99.90
16066;DHT22;8137;48.952;8.970;2023-10-31T04:44:32;10.60;99.90
16066;DHT22;8137;48.952;8.970;2023-10-31T04:46:58;10.60;99.90
16066;DHT22;8137;48.952;8.970;2023-10-31T04:49:24;10.60;99.90
16066;DHT22;8137;48.952;8.970;2023-10-31T04:51:49;10.50;99.90
16066;DHT22;8137;48.952;8.970;2023-10-31T04:54:17;10.50;99.90
16066;DHT22;8137;48.952;8.970;2023-10-31T04:56:43;10.50;99.90
16066;DHT22;8137;48.952;8.970;2023-10-31T04:59:09;10.50;99.90
16066;DHT22;8137;48.952;8.970;2023-10-31T05:01:34;10.50;99.90
16066;DHT22;8137;48.952;8.970;2023-10-31T05:04:00;10.40;99.90
16066;DHT22;8137;48.952;8.970;2023-10-31T05:06:26;10.40;99.90
16066;DHT22;8137;48.952;8.970;2023-10-31T05:08:52;10.40;99.90
16066;DHT22;8137;48.952;8.970;2023-10-31T05:11:17;10.40;99.90
16066;DHT22;8137;48.952;8.970;2023-10-31T05:13:44;10.40;99.90
16066;DHT22;8137;48.952;8.970;2023-10-31T05:16:10;10.30;99.90
16066;DHT22;8137;48.952;8.970;2023-10-31T05:18:37;10.30;99.90
16066;DHT22;8137;48.952;8.970;2023-10-31T05:21:04;10.30;99.90
16066;DHT22;8137;48.952;8.970;2023-10-31T05:23:30;10.20;99.90
16066;DHT22;8137;48.952;8.970;2023-10-31T05:25:55;10.20;99.90
16066;DHT22;8137;48.952;8.970;2023-10-31T05:28:21;10.20;99.90
16066;DHT22;8137;48.952;8.970;2023-10-31T05:30:47;10.20;99.90
16066;DHT22;8137;48.952;8.970;2023-10-31T05:33:17;10.20;99.90
16066;DHT22;8137;48.952;8.970;2023-10-31T05:35:43;10.10;99.90
16066;DHT22;8137;48.952;8.970;2023-10-31T05:38:08;10.10;99.90
16066;DHT22;8137;48.952;8.970;2023-10-31T05:40:34;10.10;99.90
16066;DHT22;8137;48.952;8.970;2023-10-31T05:43:03;10.10;99.90
16066;DHT22;8137;48.952;8.970;2023-10-31T05:45:30;10.10;99.90
16066;DHT22;8137;48.952;8.970;2023-10-31T05:47:56;10.10;99.90
16066;DHT22;8137;48.952;8.970;2023-10-31T05:50:21;10.10;99.90
16066;DHT22;8137;48.952;8.970;2023-10-31T05:52:47;10.20;99.90
16066;DHT22;8137;48.952;8.970;2023-10-31T05:55:13;10.20;99.90
16066;DHT22;8137;48.952;8.970;2023-10-31T05:57:38;10.20;99.90
16066;DHT22;8137;48.952;8.970;2023-10-31T06:00:05;10.20;99.90
16066;DHT22;8137;48.952;8.970;2023-10-31T06:02:31;10.20;99.90
16066;DHT22;8137;48.952;8.970;2023-10-31T06:04:56;10.20;99.90
16066;DHT22;8137;48.952;8.970;2023-10-31T06:07:22;10.20;99.90
16066;DHT22;8137;48.952;8.970;2023-10-31T06:09:48;10.10;99.90
16066;DHT22;8137;48.952;8.970;2023-10-31T06:12:13;10.20;99.90
16066;DHT22;8137;48.952;8.970;2023-10-31T06:14:39;10.20;99.90
16066;DHT22;8137;48.952;8.970;2023-10-31T06:17:04;10.20;99.90
16066;DHT22;8137;48.952;8.970;2023-10-31T06:19:34;10.10;99.90
16066;DHT22;8137;48.952;8.970;2023-10-31T06:22:00;10.10;99.90
16066;DHT22;8137;48.952;8.970;2023-10-31T06:24:25;10.10;99.90
16066;DHT22;8137;48.952;8.970;2023-10-31T06:26:51;10.10;99.90
16066;DHT22;8137;48.952;8.970;2023-10-31T06:29:17;10.10;99.90
16066;DHT22;8137;48.952;8.970;2023-10-31T06:31:43;10.10;99.90
16066;DHT22;8137;48.952;8.970;2023-10-31T06:34:09;10.20;99.90
16066;DHT22;8137;48.952;8.970;2023-10-31T06:36:34;10.20;99.90
16066;DHT22;8137;48.952;8.970;2023-10-31T06:39:00;10.20;99.90
16066;DHT22;8137;48.952;8.970;2023-10-31T06:41:26;10.30;99.90
16066;DHT22;8137;48.952;8.970;2023-10-31T06:43:51;10.40;99.90
16066;DHT22;8137;48.952;8.970;2023-10-31T06:46:17;10.40;99.90
16066;DHT22;8137;48.952;8.970;2023-10-31T06:48:43;10.50;99.90
16066;DHT22;8137;48.952;8.970;2023-10-31T06:51:09;10.50;99.90
16066;DHT22;8137;48.952;8.970;2023-10-31T06:53:34;10.50;99.90
16066;DHT22;8137;48.952;8.970;2023-10-31T06:56:00;10.50;99.90
16066;DHT22;8137;48.952;8.970;2023-10-31T06:58:26;10.60;99.90
16066;DHT22;8137;48.952;8.970;2023-10-31T07:00:51;10.60;99.90
16066;DHT22;8137;48.952;8.970;2023-10-31T07:03:17;10.60;99.90
16066;DHT22;8137;48.952;8.970;2023-10-31T07:05:43;10.60;99.90
16066;DHT22;8137;48.952;8.970;2023-10-31T07:08:09;10.70;99.90
16066;DHT22;8137;48.952;8.970;2023-10-31T07:10:34;10.70;99.90
16066;DHT22;8137;48.952;8.970;2023-10-31T07:13:00;10.70;99.90
16066;DHT22;8137;48.952;8.970;2023-10-31T07:15:26;10.80;99.90
16066;DHT22;8137;48.952;8.970;2023-10-31T07:17:51;10.80;99.90
16066;DHT22;8137;48.952;8.970;2023-10-31T07:20:17;10.90;99.90
16066;DHT22;8137;48.952;8.970;2023-10-31T07:22:43;10.90;99.90
16066;DHT22;8137;48.952;8.970;2023-10-31T07:25:09;10.90;99.90
16066;DHT22;8137;48.952;8.970;2023-10-31T07:27:35;11.00;99.90
16066;DHT22;8137;48.952;8.970;2023-10-31T07:30:01;11.00;99.90
16066;DHT22;8137;48.952;8.970;2023-10-31T07:32:27;11.00;99.90
16066;DHT22;8137;48.952;8.970;2023-10-31T07:34:53;11.10;99.90
16066;DHT22;8137;48.952;8.970;2023-10-31T07:37:18;11.10;99.90
16066;DHT22;8137;48.952;8.970;2023-10-31T07:39:44;11.20;99.90
16066;DHT22;8137;48.952;8.970;2023-10-31T07:42:09;11.20;99.90
16066;DHT22;8137;48.952;8.970;2023-10-31T07:44:35;11.20;99.90
16066;DHT22;8137;48.952;8.970;2023-10-31T07:47:01;11.30;99.90
16066;DHT22;8137;48.952;8.970;2023-10-31T07:49:27;11.40;99.90
16066;DHT22;8137;48.952;8.970;2023-10-31T07:51:52;11.50;99.90
16066;DHT22;8137;48.952;8.970;2023-10-31T07:54:18;11.60;99.90
16066;DHT22;8137;48.952;8.970;2023-10-31T07:56:44;11.70;99.90
16066;DHT22;8137;48.952;8.970;2023-10-31T07:59:10;11.80;99.90
16066;DHT22;8137;48.952;8.970;2023-10-31T08:01:36;11.90;99.90
16066;DHT22;8137;48.952;8.970;2023-10-31T08:04:02;12.00;99.90
16066;DHT22;8137;48.952;8.970;2023-10-31T08:06:27;12.00;99.90
16066;DHT22;8137;48.952;8.970;2023-10-31T08:08:53;12.00;99.90
16066;DHT22;8137;48.952;8.970;2023-10-31T08:11:19;12.10;99.90
16066;DHT22;8137;48.952;8.970;2023-10-31T08:13:44;12.20;99.90
16066;DHT22;8137;48.952;8.970;2023-10-31T08:16:10;12.20;99.90
16066;DHT22;8137;48.952;8.970;2023-10-31T08:18:36;12.30;99.90
16066;DHT22;8137;48.952;8.970;2023-10-31T08:21:02;12.20;99.90
16066;DHT22;8137;48.952;8.970;2023-10-31T08:23:29;12.20;99.90
16066;DHT22;8137;48.952;8.970;2023-10-31T08:25:55;12.20;99.90
16066;DHT22;8137;48.952;8.970;2023-10-31T08:28:20;12.20;99.90
16066;DHT22;8137;48.952;8.970;2023-10-31T08:30:46;12.20;99.90
16066;DHT22;8137;48.952;8.970;2023-10-31T08:33:12;12.10;99.90
16066;DHT22;8137;48.952;8.970;2023-10-31T08:35:38;12.20;99.90
16066;DHT22;8137;48.952;8.970;2023-10-31T08:38:03;12.20;99.90
16066;DHT22;8137;48.952;8.970;2023-10-31T08:40:29;12.20;99.90
16066;DHT22;8137;48.952;8.970;2023-10-31T08:42:55;12.20;99.90
16066;DHT22;8137;48.952;8.970;2023-10-31T08:45:21;12.10;99.90
16066;DHT22;8137;48.952;8.970;2023-10-31T08:47:46;12.20;99.90
16066;DHT22;8137;48.952;8.970;2023-10-31T08:50:12;12.30;99.90
16066;DHT22;8137;48.952;8.970;2023-10-31T08:52:39;12.30;99.90
16066;DHT22;8137;48.952;8.970;2023-10-31T08:55:05;12.40;99.90
16066;DHT22;8137;48.952;8.970;2023-10-31T08:57:31;12.40;99.90
16066;DHT22;8137;48.952;8.970;2023-10-31T08:59:59;12.50;99.90
16066;DHT22;8137;48.952;8.970;2023-10-31T09:02:24;12.50;99.90
16066;DHT22;8137;48.952;8.970;2023-10-31T09:04:50;12.50;99.90
16066;DHT22;8137;48.952;8.970;2023-10-31T09:07:15;12.50;99.90
16066;DHT22;8137;48.952;8.970;2023-10-31T09:09:41;12.50;99.90
16066;DHT22;8137;48.952;8.970;2023-10-31T09:12:07;12.50;99.90
16066;DHT22;8137;48.952;8.970;2023-10-31T09:14:33;12.50;99.90
16066;DHT22;8137;48.952;8.970;2023-10-31T09:16:58;12.60;99.90
16066;DHT22;8137;48.952;8.970;2023-10-31T09:19:24;12.70;99.90
16066;DHT22;8137;48.952;8.970;2023-10-31T09:21:49;12.80;99.90
16066;DHT22;8137;48.952;8.970;2023-10-31T09:24:15;13.00;99.90
16066;DHT22;8137;48.952;8.970;2023-10-31T09:26:44;13.20;99.90
16066;DHT22;8137;48.952;8.970;2023-10-31T09:29:13;13.40;99.90
16066;DHT22;8137;48.952;8.970;2023-10-31T09:31:38;13.40;99.90
16066;DHT22;8137;48.952;8.970;2023-10-31T09:34:04;13.40;99.90
16066;DHT22;8137;48.952;8.970;2023-10-31T09:36:33;13.30;99.90
16066;DHT22;8137;48.952;8.970;2023-10-31T09:39:02;13.30;99.90
16066;DHT22;8137;48.952;8.970;2023-10-31T09:41:28;13.30;99.90
16066;DHT22;8137;48.952;8.970;2023-10-31T09:43:55;13.50;99.90
16066;DHT22;8137;48.952;8.970;2023-10-31T09:46:21;13.60;99.90
16066;DHT22;8137;48.952;8.970;2023-10-31T09:48:48;13.60;99.90
16066;DHT22;8137;48.952;8.970;2023-10-31T09:51:14;13.70;99.90
16066;DHT22;8137;48.952;8.970;2023-10-31T09:53:41;13.70;99.90
16066;DHT22;8137;48.952;8.970;2023-10-31T09:56:08;13.70;99.90
16066;DHT22;8137;48.952;8.970;2023-10-31T09:58:34;13.60;99.90
16066;DHT22;8137;48.952;8.970;2023-10-31T10:01:00;13.60;99.90
16066;DHT22;8137;48.952;8.970;2023-10-31T10:03:27;13.70;99.90
16066;DHT22;8137;48.952;8.970;2023-10-31T10:05:52;13.60;99.90
16066;DHT22;8137;48.952;8.970;2023-10-31T10:08:19;13.60;99.90
16066;DHT22;8137;48.952;8.970;2023-10-31T10:10:45;13.50;99.90
16066;DHT22;8137;48.952;8.970;2023-10-31T10:13:10;13.70;99.90
16066;DHT22;8137;48.952;8.970;2023-10-31T10:15:48;13.60;99.90
16066;DHT22;8137;48.952;8.970;2023-10-31T10:18:27;13.80;99.90
16066;DHT22;8137;48.952;8.970;2023-10-31T10:20:57;13.80;99.90
16066;DHT22;8137;48.952;8.970;2023-10-31T10:23:27;13.80;99.90
16066;DHT22;8137;48.952;8.970;2023-10-31T10:25:54;13.90;99.90
16066;DHT22;8137;48.952;8.970;2023-10-31T10:28:20;13.90;99.90
16066;DHT22;8137;48.952;8.970;2023-10-31T10:30:46;14.00;99.90
16066;DHT22;8137;48.952;8.970;2023-10-31T10:33:13;14.00;99.90
16066;DHT22;8137;48.952;8.970;2023-10-31T10:35:39;14.00;99.90
16066;DHT22;8137;48.952;8.970;2023-10-31T10:38:19;13.90;99.90
16066;DHT22;8137;48.952;8.970;2023-10-31T10:40:48;13.90;99.90
16066;DHT22;8137;48.952;8.970;2023-10-31T10:45:43;14.30;99.90
16066;DHT22;8137;48.952;8.970;2023-10-31T10:48:13;14.50;99.90
16066;DHT22;8137;48.952;8.970;2023-10-31T10:50:45;14.40;99.90
16066;DHT22;8137;48.952;8.970;2023-10-31T10:53:22;14.30;99.90
16066;DHT22;8137;48.952;8.970;2023-10-31T10:55:52;14.30;99.90
16066;DHT22;8137;48.952;8.970;2023-10-31T10:58:27;14.40;99.90
16066;DHT22;8137;48.952;8.970;2023-10-31T11:00:57;14.40;99.90
16066;DHT22;8137;48.952;8.970;2023-10-31T11:03:24;14.40;99.90
16066;DHT22;8137;48.952;8.970;2023-10-31T11:05:51;14.40;99.90
16066;DHT22;8137;48.952;8.970;2023-10-31T11:08:19;14.30;99.90
16066;DHT22;8137;48.952;8.970;2023-10-31T11:10:46;14.20;99.90
16066;DHT22;8137;48.952;8.970;2023-10-31T11:13:12;14.20;99.90
16066;DHT22;8137;48.952;8.970;2023-10-31T11:15:39;14.20;99.90
16066;DHT22;8137;48.952;8.970;2023-10-31T11:18:06;14.30;99.90
16066;DHT22;8137;48.952;8.970;2023-10-31T11:20:31;14.40;99.90
16066;DHT22;8137;48.952;8.970;2023-10-31T11:22:57;14.50;99.90
16066;DHT22;8137;48.952;8.970;2023-10-31T11:25:23;14.60;99.90
16066;DHT22;8137;48.952;8.970;2023-10-31T11:27:53;14.50;99.90
16066;DHT22;8137;48.952;8.970;2023-10-31T11:32:57;14.30;99.90
16066;DHT22;8137;48.952;8.970;2023-10-31T11:35:23;14.10;99.90
16066;DHT22;8137;48.952;8.970;2023-10-31T11:37:50;13.80;99.90
16066;DHT22;8137;48.952;8.970;2023-10-31T11:40:26;13.70;99.90
16066;DHT22;8137;48.952;8.970;2023-10-31T11:42:53;13.50;99.90
16066;DHT22;8137;48.952;8.970;2023-10-31T11:48:00;13.40;99.90
16066;DHT22;8137;48.952;8.970;2023-10-31T11:50:26;13.50;99.90
16066;DHT22;8137;48.952;8.970;2023-10-31T11:53:13;13.70;99.90
16066;DHT22;8137;48.952;8.970;2023-10-31T11:55:44;13.90;99.90
16066;DHT22;8137;48.952;8.970;2023-10-31T11:58:23;14.10;99.90
16066;DHT22;8137;48.952;8.970;2023-10-31T12:01:02;14.30;99.90
16066;DHT22;8137;48.952;8.970;2023-10-31T12:03:43;14.50;99.90
16066;DHT22;8137;48.952;8.970;2023-10-31T12:06:13;14.50;99.90
16066;DHT22;8137;48.952;8.970;2023-10-31T12:08:43;14.20;99.90
16066;DHT22;8137;48.952;8.970;2023-10-31T12:11:12;14.20;99.90
16066;DHT22;8137;48.952;8.970;2023-10-31T12:13:40;14.20;99.90
16066;DHT22;8137;48.952;8.970;2023-10-31T12:16:10;14.00;99.90
16066;DHT22;8137;48.952;8.970;2023-10-31T12:18:38;13.90;99.90
16066;DHT22;8137;48.952;8.970;2023-10-31T12:21:06;13.80;99.90
16066;DHT22;8137;48.952;8.970;2023-10-31T12:23:33;13.60;99.90
16066;DHT22;8137;48.952;8.970;2023-10-31T12:25:59;13.60;99.90
16066;DHT22;8137;48.952;8.970;2023-10-31T12:28:25;13.60;99.90
16066;DHT22;8137;48.952;8.970;2023-10-31T12:30:53;13.50;99.90
16066;DHT22;8137;48.952;8.970;2023-10-31T12:33:20;13.50;99.90
16066;DHT22;8137;48.952;8.970;2023-10-31T12:35:52;13.40;99.90
16066;DHT22;8137;48.952;8.970;2023-10-31T12:38:22;13.30;99.90
16066;DHT22;8137;48.952;8.970;2023-10-31T12:40:48;13.20;99.90
16066;DHT22;8137;48.952;8.970;2023-10-31T12:43:15;13.20;99.90
16066;DHT22;8137;48.952;8.970;2023-10-31T12:45:41;13.20;99.90
16066;DHT22;8137;48.952;8.970;2023-10-31T12:48:07;13.20;99.90
16066;DHT22;8137;48.952;8.970;2023-10-31T12:50:35;13.30;99.90
16066;DHT22;8137;48.952;8.970;2023-10-31T12:53:05;13.20;99.90
16066;DHT22;8137;48.952;8.970;2023-10-31T12:55:40;13.20;99.90
16066;DHT22;8137;48.952;8.970;2023-10-31T12:58:06;13.20;99.90
16066;DHT22;8137;48.952;8.970;2023-10-31T13:00:35;13.20;99.90
16066;DHT22;8137;48.952;8.970;2023-10-31T13:03:06;13.30;99.90
16066;DHT22;8137;48.952;8.970;2023-10-31T13:05:33;13.20;99.90
16066;DHT22;8137;48.952;8.970;2023-10-31T13:08:00;13.40;99.90
16066;DHT22;8137;48.952;8.970;2023-10-31T13:10:27;13.40;99.90
16066;DHT22;8137;48.952;8.970;2023-10-31T13:12:53;13.50;99.90
16066;DHT22;8137;48.952;8.970;2023-10-31T13:15:21;13.70;99.90
16066;DHT22;8137;48.952;8.970;2023-10-31T13:17:48;14.00;99.90
16066;DHT22;8137;48.952;8.970;2023-10-31T13:20:15;14.30;99.90
16066;DHT22;8137;48.952;8.970;2023-10-31T13:22:42;14.60;99.90
16066;DHT22;8137;48.952;8.970;2023-10-31T13:25:10;14.90;99.90
16066;DHT22;8137;48.952;8.970;2023-10-31T13:27:37;15.10;99.90
16066;DHT22;8137;48.952;8.970;2023-10-31T13:30:04;15.00;99.90
16066;DHT22;8137;48.952;8.970;2023-10-31T13:32:30;14.80;99.90
16066;DHT22;8137;48.952;8.970;2023-10-31T13:34:55;14.60;99.90
16066;DHT22;8137;48.952;8.970;2023-10-31T13:37:21;14.50;99.90
16066;DHT22;8137;48.952;8.970;2023-10-31T13:39:47;14.40;99.90
16066;DHT22;8137;48.952;8.970;2023-10-31T13:42:13;14.30;99.90
16066;DHT22;8137;48.952;8.970;2023-10-31T13:44:42;14.20;99.90
16066;DHT22;8137;48.952;8.970;2023-10-31T13:47:08;14.10;99.90
16066;DHT22;8137;48.952;8.970;2023-10-31T13:49:35;14.00;99.90
16066;DHT22;8137;48.952;8.970;2023-10-31T13:52:00;13.90;99.90
16066;DHT22;8137;48.952;8.970;2023-10-31T13:54:26;13.90;99.90
16066;DHT22;8137;48.952;8.970;2023-10-31T13:56:52;13.80;99.90
16066;DHT22;8137;48.952;8.970;2023-10-31T13:59:17;13.80;99.90
16066;DHT22;8137;48.952;8.970;2023-10-31T14:01:44;13.80;99.90
16066;DHT22;8137;48.952;8.970;2023-10-31T14:04:13;13.80;99.90
16066;DHT22;8137;48.952;8.970;2023-10-31T14:06:39;13.70;99.90
16066;DHT22;8137;48.952;8.970;2023-10-31T14:09:05;13.70;99.90
16066;DHT22;8137;48.952;8.970;2023-10-31T14:11:32;13.70;99.90
16066;DHT22;8137;48.952;8.970;2023-10-31T14:13:59;13.60;99.90
16066;DHT22;8137;48.952;8.970;2023-10-31T14:16:29;13.60;99.90
16066;DHT22;8137;48.952;8.970;2023-10-31T14:18:57;13.50;99.90
16066;DHT22;8137;48.952;8.970;2023-10-31T14:21:23;13.60;99.90
16066;DHT22;8137;48.952;8.970;2023-10-31T14:23:51;13.60;99.90
16066;DHT22;8137;48.952;8.970;2023-10-31T14:26:22;13.70;99.90
16066;DHT22;8137;48.952;8.970;2023-10-31T14:28:49;13.70;99.90
16066;DHT22;8137;48.952;8.970;2023-10-31T14:31:15;13.70;99.90
16066;DHT22;8137;48.952;8.970;2023-10-31T14:33:44;13.70;99.90
16066;DHT22;8137;48.952;8.970;2023-10-31T14:36:10;13.70;99.90
16066;DHT22;8137;48.952;8.970;2023-10-31T14:38:38;13.60;99.90
16066;DHT22;8137;48.952;8.970;2023-10-31T14:41:04;13.60;99.90
16066;DHT22;8137;48.952;8.970;2023-10-31T14:43:30;13.50;99.90
16066;DHT22;8137;48.952;8.970;2023-10-31T14:45:56;13.50;99.90
16066;DHT22;8137;48.952;8.970;2023-10-31T14:48:22;13.30;99.90
16066;DHT22;8137;48.952;8.970;2023-10-31T14:50:48;13.30;99.90
16066;DHT22;8137;48.952;8.970;2023-10-31T14:53:17;13.20;99.90
16066;DHT22;8137;48.952;8.970;2023-10-31T14:55:46;13.10;99.90
16066;DHT22;8137;48.952;8.970;2023-10-31T14:58:12;13.00;99.90
16066;DHT22;8137;48.952;8.970;2023-10-31T15:00:37;13.10;99.90
16066;DHT22;8137;48.952;8.970;2023-10-31T15:03:04;13.10;99.90
16066;DHT22;8137;48.952;8.970;2023-10-31T15:05:29;13.20;99.90
16066;DHT22;8137;48.952;8.970;2023-10-31T15:07:56;13.10;99.90
16066;DHT22;8137;48.952;8.970;2023-10-31T15:10:25;13.10;99.90
16066;DHT22;8137;48.952;8.970;2023-10-31T15:12:53;13.10;99.90
16066;DHT22;8137;48.952;8.970;2023-10-31T15:15:19;13.00;99.90
16066;DHT22;8137;48.952;8.970;2023-10-31T15:17:45;12.90;99.90
16066;DHT22;8137;48.952;8.970;2023-10-31T15:20:11;12.90;99.90
16066;DHT22;8137;48.952;8.970;2023-10-31T15:22:40;12.90;99.90
16066;DHT22;8137;48.952;8.970;2023-10-31T15:25:07;12.80;99.90
16066;DHT22;8137;48.952;8.970;2023-10-31T15:27:33;12.70;99.90
16066;DHT22;8137;48.952;8.970;2023-10-31T15:29:59;12.70;99.90
16066;DHT22;8137;48.952;8.970;2023-10-31T15:32:25;12.60;99.90
16066;DHT22;8137;48.952;8.970;2023-10-31T15:34:50;12.60;99.90
16066;DHT22;8137;48.952;8.970;2023-10-31T15:37:16;12.60;99.90
16066;DHT22;8137;48.952;8.970;2023-10-31T15:39:42;12.60;99.90
16066;DHT22;8137;48.952;8.970;2023-10-31T15:42:08;12.50;99.90
16066;DHT22;8137;48.952;8.970;2023-10-31T15:44:36;12.50;99.90
16066;DHT22;8137;48.952;8.970;2023-10-31T15:47:03;12.40;99.90
16066;DHT22;8137;48.952;8.970;2023-10-31T15:49:28;12.30;99.90